Terminal Aerodrome Forecast
Issued by NWS

Home | Current Version | Previous Version | Text Only | Print | Product List | Glossary On
Versions: 1 2 3 4 5 6 7 8 9 10 11 12 13 14 15 16 17
000
FTUS45 KREV 240520
TAFTVL
TAF
KTVL 240520Z 2406/2506 VRB03KT P6SM VCSH SCT025 BKN035
     FM241200 VRB03KT P6SM SCT180
     FM241900 19007KT P6SM FEW050 OVC180=

USA.gov is the U.S. government's official web portal to all federal, state and local government web resources and services.